Time;durP1;ratioP1;P1;durP2;ratioP2;P2;SDS_P1;SDS_P2;PMS_P1;PMS_P2;Temp;Humidity;BMP_temperature;BMP_pressure;BME280_temperature;BME280_humidity;BME280_pressure;Samples;Min_cycle;Max_cycle;Signal;HPM_P1;HPM_P2
2022/01/17 00:00:41;;;;;;;15.58;7.33;;;;;;;0.47;63.54;97613.30;1696890;83;20959;-59
2022/01/17 00:03:07;;;;;;;12.53;7.40;;;;;;;0.48;63.86;97619.64;1716165;83;21366;-60
2022/01/17 00:05:34;;;;;;;12.15;7.67;;;;;;;0.49;63.95;97625.20;1702803;83;21023;-68
2022/01/17 00:08:01;;;;;;;13.08;8.08;;;;;;;0.50;64.22;97619.40;1707873;83;21129;-67
2022/01/17 00:10:34;;;;;;;14.33;7.97;;;;;;;0.50;64.24;97607.53;1698672;82;21011;-64
2022/01/17 00:13:01;;;;;;;15.38;7.80;;;;;;;0.49;64.50;97626.52;1711264;83;20961;-62
2022/01/17 00:15:40;;;;;;;16.65;8.50;;;;;;;0.49;64.79;97614.67;1695721;83;20892;-59
2022/01/17 00:20:45;;;;;;;14.05;8.20;;;;;;;0.47;65.22;97608.03;1708887;83;21441;-66
2022/01/17 00:23:13;;;;;;;19.07;8.70;;;;;;;0.46;65.46;97607.73;1696618;83;20975;-59
2022/01/17 00:25:40;;;;;;;18.37;8.83;;;;;;;0.48;65.58;97606.98;1711600;83;20995;-61
2022/01/17 00:28:07;;;;;;;15.32;8.93;;;;;;;0.48;65.70;97602.52;1709575;82;21450;-68
2022/01/17 00:30:34;;;;;;;18.17;9.28;;;;;;;0.49;65.96;97606.77;1710799;83;20951;-60
2022/01/17 00:33:00;;;;;;;17.65;9.23;;;;;;;0.48;66.14;97604.34;1687070;84;21112;-60
2022/01/17 00:35:27;;;;;;;16.10;9.40;;;;;;;0.46;66.36;97605.09;1693987;84;20955;-59
2022/01/17 00:37:54;;;;;;;16.42;9.25;;;;;;;0.43;66.63;97593.70;1701470;82;21490;-60
2022/01/17 00:40:22;;;;;;;15.95;9.75;;;;;;;0.43;66.80;97600.29;1700453;82;20900;-64
2022/01/17 00:42:49;;;;;;;15.83;8.90;;;;;;;0.43;67.11;97598.97;1692221;82;20999;-62
2022/01/17 00:45:15;;;;;;;16.17;10.03;;;;;;;0.41;67.41;97595.78;1688797;83;21075;-62
2022/01/17 00:47:42;;;;;;;15.70;9.45;;;;;;;0.40;67.82;97589.70;1694043;83;21528;-64
2022/01/17 00:50:09;;;;;;;17.90;9.88;;;;;;;0.39;67.99;97590.75;1705309;82;21025;-66
2022/01/17 00:52:36;;;;;;;18.37;11.12;;;;;;;0.41;68.47;97577.33;1699230;82;21462;-64
2022/01/17 00:55:04;;;;;;;20.15;10.72;;;;;;;0.42;68.88;97571.05;1698978;82;21037;-63
2022/01/17 00:57:31;;;;;;;16.37;10.08;;;;;;;0.40;68.96;97569.16;1701808;83;21107;-60
2022/01/17 00:59:59;;;;;;;25.60;11.43;;;;;;;0.40;69.49;97578.39;1694341;82;20943;-61
2022/01/17 01:02:25;;;;;;;18.35;11.35;;;;;;;0.41;70.32;97564.16;1722309;83;20988;-61
2022/01/17 01:04:52;;;;;;;17.55;11.05;;;;;;;0.38;71.14;97553.57;1722298;83;20875;-62
2022/01/17 01:07:18;;;;;;;20.27;10.85;;;;;;;0.35;72.55;97574.34;1722443;83;21560;-62
2022/01/17 01:09:57;;;;;;;21.12;11.97;;;;;;;0.28;74.34;97563.14;1714495;83;21130;-64
2022/01/17 01:12:13;;;;;;;18.98;11.53;;;;;;;0.19;75.32;97571.13;1718871;83;21415;-60
2022/01/17 01:14:42;;;;;;;16.32;10.82;;;;;;;0.10;76.59;97554.08;1695931;83;20951;-63
2022/01/17 01:17:19;;;;;;;22.30;11.80;;;;;;;0.06;77.61;97555.59;1718851;83;21001;-68
2022/01/17 01:19:42;;;;;;;23.10;12.65;;;;;;;-0.04;79.41;97558.81;1697974;83;21400;-67
2022/01/17 01:27:58;;;;;;;22.27;12.10;;;;;;;-0.31;82.37;97557.73;1696130;83;21482;-68
2022/01/17 01:30:26;;;;;;;20.43;12.13;;;;;;;-0.38;83.00;97534.19;1691805;82;20931;-67
2022/01/17 01:32:56;;;;;;;20.68;11.85;;;;;;;-0.42;83.73;97530.91;1749777;81;21015;-68
2022/01/17 01:35:23;;;;;;;22.27;12.50;;;;;;;-0.48;84.23;97526.07;1748891;81;21893;-69
2022/01/17 01:37:50;;;;;;;20.10;12.18;;;;;;;-0.53;85.19;97507.55;1719536;82;21003;-60
2022/01/17 01:40:18;;;;;;;19.70;11.83;;;;;;;-0.53;85.35;97501.48;1731325;80;20958;-68
2022/01/17 01:42:45;;;;;;;20.35;12.07;;;;;;;-0.54;85.73;97507.78;1714633;83;20903;-65
2022/01/17 01:45:13;;;;;;;15.83;11.38;;;;;;;-0.57;85.57;97505.61;1715495;82;21002;-61
2022/01/17 01:47:41;;;;;;;17.87;11.93;;;;;;;-0.58;86.02;97494.28;1695957;83;21104;-68
2022/01/17 01:50:10;;;;;;;20.62;11.00;;;;;;;-0.57;86.29;97497.20;1720931;82;21029;-61
2022/01/17 01:52:41;;;;;;;22.00;12.30;;;;;;;-0.53;86.79;97508.05;1715541;82;20887;-61
2022/01/17 01:55:10;;;;;;;19.07;11.63;;;;;;;-0.55;87.38;97506.98;1722267;82;20926;-66
2022/01/17 01:57:37;;;;;;;22.98;11.80;;;;;;;-0.58;87.52;97506.12;1740803;82;20977;-65
2022/01/17 02:00:06;;;;;;;20.88;12.07;;;;;;;-0.61;87.32;97502.63;1728373;82;21127;-62
2022/01/17 02:02:34;;;;;;;18.60;12.75;;;;;;;-0.62;87.46;97498.92;1732523;82;20989;-60
2022/01/17 02:05:02;;;;;;;18.98;11.97;;;;;;;-0.62;88.04;97526.54;1731095;82;20957;-67
2022/01/17 02:07:29;;;;;;;19.07;10.95;;;;;;;-0.61;87.87;97497.91;1732534;82;20879;-68
2022/01/17 02:09:56;;;;;;;20.60;12.47;;;;;;;-0.58;88.16;97501.36;1717609;82;21433;-63
2022/01/17 02:12:25;;;;;;;19.40;12.35;;;;;;;-0.59;88.12;97499.27;1694473;83;21161;-61
2022/01/17 02:14:54;;;;;;;20.32;12.40;;;;;;;-0.59;87.91;97474.28;1707028;83;20898;-65
2022/01/17 02:17:21;;;;;;;17.73;12.20;;;;;;;-0.59;88.03;97469.02;1715896;81;20973;-61
2022/01/17 02:19:56;;;;;;;22.13;11.60;;;;;;;-0.60;88.22;97476.62;1732005;82;20891;-70
2022/01/17 02:22:23;;;;;;;19.07;12.23;;;;;;;-0.59;88.25;97451.92;1732372;82;20886;-61
2022/01/17 02:24:49;;;;;;;19.32;12.50;;;;;;;-0.63;88.35;97462.60;1740567;82;21133;-66
2022/01/17 02:27:16;;;;;;;21.35;12.28;;;;;;;-0.64;88.59;97450.50;1729525;82;21485;-66
2022/01/17 02:29:43;;;;;;;19.25;13.18;;;;;;;-0.63;88.48;97457.34;1715416;82;20918;-67
2022/01/17 02:32:09;;;;;;;18.48;12.80;;;;;;;-0.65;88.48;97443.62;1696220;82;21022;-69
2022/01/17 02:34:42;;;;;;;21.35;12.73;;;;;;;-0.64;88.69;97439.17;1696759;82;21058;-65
2022/01/17 02:37:10;;;;;;;20.62;12.75;;;;;;;-0.64;88.66;97446.55;1696971;83;21129;-67
2022/01/17 02:39:38;;;;;;;19.80;13.50;;;;;;;-0.61;88.37;97430.28;1716773;82;20894;-64
2022/01/17 02:42:06;;;;;;;19.60;12.95;;;;;;;-0.58;88.09;97435.59;1713361;83;21291;-67
2022/01/17 02:44:33;;;;;;;23.10;12.55;;;;;;;-0.55;87.98;97428.05;1715380;82;21525;-59
2022/01/17 02:47:02;;;;;;;20.70;12.78;;;;;;;-0.53;87.75;97408.89;1711861;83;20961;-60
2022/01/17 02:49:28;;;;;;;22.73;13.70;;;;;;;-0.50;87.54;97417.64;1713673;83;21512;-64
2022/01/17 02:51:55;;;;;;;23.07;13.30;;;;;;;-0.46;87.59;97425.84;1714283;83;20894;-68
2022/01/17 02:54:22;;;;;;;20.90;12.95;;;;;;;-0.43;87.41;97421.45;1710340;83;20969;-67
2022/01/17 02:56:49;;;;;;;23.40;14.07;;;;;;;-0.42;87.35;97403.29;1713835;82;21048;-69
2022/01/17 02:59:15;;;;;;;22.55;12.90;;;;;;;-0.40;87.20;97420.98;1714623;82;21539;-66
2022/01/17 03:01:42;;;;;;;22.05;12.98;;;;;;;-0.40;87.09;97404.66;1713873;83;21836;-70
2022/01/17 03:04:09;;;;;;;19.45;12.90;;;;;;;-0.40;87.12;97397.30;1713548;81;21043;-66
2022/01/17 03:06:37;;;;;;;23.00;13.28;;;;;;;-0.43;87.12;97407.78;1746450;80;20856;-64
2022/01/17 03:09:05;;;;;;;20.37;13.75;;;;;;;-0.46;88.66;97392.45;1745504;81;20891;-69
2022/01/17 03:11:32;;;;;;;19.05;12.70;;;;;;;-0.49;89.12;97388.97;1745101;81;21538;-67
2022/01/17 03:13:59;;;;;;;19.90;12.65;;;;;;;-0.49;89.43;97402.12;1743930;81;21240;-61
2022/01/17 03:16:32;;;;;;;21.73;13.43;;;;;;;-0.49;89.26;97375.81;1753592;81;20891;-60
2022/01/17 03:18:58;;;;;;;20.90;13.35;;;;;;;-0.49;88.69;97373.69;1744888;80;21109;-61
2022/01/17 03:21:27;;;;;;;20.30;13.03;;;;;;;-0.52;88.54;97372.36;1744700;80;21586;-65
2022/01/17 03:23:53;;;;;;;21.70;14.10;;;;;;;-0.48;88.47;97364.27;1748211;80;20895;-58
2022/01/17 03:26:20;;;;;;;20.08;14.03;;;;;;;-0.47;88.50;97385.58;1745419;81;21114;-64
2022/01/17 03:28:47;;;;;;;19.85;13.35;;;;;;;-0.45;88.47;97352.48;1739282;80;20974;-59
2022/01/17 03:31:14;;;;;;;18.35;12.88;;;;;;;-0.44;88.45;97355.38;1721562;82;20946;-61
2022/01/17 03:33:41;;;;;;;20.45;13.35;;;;;;;-0.48;88.55;97364.27;1725375;81;20953;-63
2022/01/17 03:36:07;;;;;;;19.73;13.48;;;;;;;-0.49;88.44;97352.13;1732930;82;20910;-69
2022/01/17 03:38:35;;;;;;;18.87;12.82;;;;;;;-0.47;88.53;97350.06;1739775;82;21754;-66
2022/01/17 03:41:02;;;;;;;21.90;13.65;;;;;;;-0.44;88.58;97342.22;1718631;82;20891;-65
2022/01/17 03:43:29;;;;;;;19.20;13.62;;;;;;;-0.41;88.61;97338.61;1693791;82;20924;-67
2022/01/17 03:45:57;;;;;;;20.68;13.45;;;;;;;-0.43;88.54;97326.21;1748686;80;20939;-67
2022/01/17 03:48:24;;;;;;;19.23;14.20;;;;;;;-0.43;88.63;97330.16;1726770;81;20886;-64
2022/01/17 03:50:51;;;;;;;20.45;13.50;;;;;;;-0.42;88.65;97330.42;1736662;82;21902;-61
2022/01/17 03:53:18;;;;;;;22.02;13.32;;;;;;;-0.41;88.61;97335.17;1724620;82;20891;-68
2022/01/17 03:55:45;;;;;;;21.27;13.53;;;;;;;-0.43;88.70;97325.41;1722757;82;21453;-64
2022/01/17 03:58:11;;;;;;;20.62;14.03;;;;;;;-0.42;88.79;97319.89;1719609;82;20977;-63
2022/01/17 04:00:42;;;;;;;21.73;13.50;;;;;;;-0.42;88.71;97318.58;1727770;82;20941;-64
2022/01/17 04:03:09;;;;;;;19.00;13.15;;;;;;;-0.39;88.75;97313.36;1734104;82;21452;-60
2022/01/17 04:05:36;;;;;;;23.32;14.53;;;;;;;-0.37;88.67;97312.09;1719984;80;20938;-64
2022/01/17 04:08:04;;;;;;;23.62;14.05;;;;;;;-0.35;88.64;97330.27;1712628;83;21438;-64
2022/01/17 04:10:31;;;;;;;20.32;14.10;;;;;;;-0.34;88.57;97309.00;1697735;83;21058;-64
2022/01/17 04:13:02;;;;;;;21.15;13.32;;;;;;;-0.34;88.55;97320.84;1694547;83;20951;-60
2022/01/17 04:15:26;;;;;;;21.35;14.18;;;;;;;-0.34;88.55;97326.11;1707101;83;21433;-63
2022/01/17 04:17:52;;;;;;;19.30;13.03;;;;;;;-0.33;88.69;97325.59;1699481;83;21005;-64
2022/01/17 04:20:28;;;;;;;26.42;14.70;;;;;;;-0.33;88.73;97326.37;1695087;83;20975;-69
2022/01/17 04:23:01;;;;;;;23.20;14.68;;;;;;;-0.31;88.72;97319.06;1719225;83;20898;-61
2022/01/17 04:25:30;;;;;;;19.10;14.28;;;;;;;-0.31;88.66;97320.38;1699621;82;20907;-69
2022/01/17 04:27:58;;;;;;;19.37;13.50;;;;;;;-0.30;88.75;97308.80;1704278;84;21066;-60
2022/01/17 04:30:26;;;;;;;20.90;13.38;;;;;;;-0.32;88.77;97296.91;1719742;82;20962;-60
2022/01/17 04:32:52;;;;;;;18.02;13.13;;;;;;;-0.29;88.80;97293.30;1715960;81;20968;-64
2022/01/17 04:35:20;;;;;;;20.80;13.65;;;;;;;-0.28;88.84;97289.61;1716256;83;21450;-62
2022/01/17 04:37:50;;;;;;;22.60;13.78;;;;;;;-0.25;88.94;97290.98;1714866;82;20882;-62
2022/01/17 04:40:17;;;;;;;18.27;13.72;;;;;;;-0.25;88.87;97283.88;1716177;83;21106;-63
2022/01/17 04:42:47;;;;;;;21.25;13.40;;;;;;;-0.25;88.96;97290.47;1749345;81;20939;-62
2022/01/17 04:45:15;;;;;;;21.52;13.93;;;;;;;-0.22;88.97;97285.24;1746280;80;20922;-61
2022/01/17 04:47:46;;;;;;;20.50;15.00;;;;;;;-0.22;89.08;97272.89;1726248;82;20856;-61
2022/01/17 04:50:20;;;;;;;17.85;12.47;;;;;;;-0.21;89.02;97263.13;1721930;82;20938;-60
2022/01/17 04:52:48;;;;;;;18.25;13.75;;;;;;;-0.23;89.36;97272.59;1748411;81;21431;-60
2022/01/17 04:55:15;;;;;;;20.20;14.15;;;;;;;-0.24;89.40;97270.22;1740729;82;20864;-62
2022/01/17 04:57:43;;;;;;;21.07;13.68;;;;;;;-0.26;89.51;97273.06;1745107;81;20971;-61
2022/01/17 05:00:13;;;;;;;19.98;14.45;;;;;;;-0.23;89.54;97271.28;1745225;82;20931;-64
2022/01/17 05:02:39;;;;;;;22.55;14.58;;;;;;;-0.21;89.66;97266.57;1727096;82;21008;-66
2022/01/17 05:05:08;;;;;;;19.35;14.18;;;;;;;-0.21;89.71;97251.29;1723099;82;21119;-66
2022/01/17 05:07:35;;;;;;;21.10;14.75;;;;;;;-0.21;89.86;97244.70;1737562;82;21324;-68
2022/01/17 05:10:04;;;;;;;21.37;14.95;;;;;;;-0.20;89.87;97240.54;1711223;83;20925;-64
2022/01/17 05:12:31;;;;;;;19.85;14.60;;;;;;;-0.15;89.91;97241.94;1702449;82;20925;-63
2022/01/17 05:14:59;;;;;;;20.68;14.53;;;;;;;-0.13;90.04;97264.06;1712031;83;21486;-64
2022/01/17 05:19:58;;;;;;;21.70;14.43;;;;;;;-0.14;90.05;97215.88;1710465;82;21022;-61
2022/01/17 05:22:32;;;;;;;20.30;14.55;;;;;;;-0.14;90.02;97227.72;1706494;83;21393;-60
2022/01/17 05:25:02;;;;;;;21.57;14.28;;;;;;;-0.14;90.17;97226.41;1710512;83;21295;-62
2022/01/17 05:27:29;;;;;;;21.33;14.33;;;;;;;-0.15;90.09;97209.03;1699347;83;21021;-62
2022/01/17 05:29:56;;;;;;;19.37;13.62;;;;;;;-0.14;90.13;97199.28;1699052;83;21127;-64
2022/01/17 05:32:23;;;;;;;19.82;14.25;;;;;;;-0.13;90.19;97200.38;1695935;82;21506;-64
2022/01/17 05:34:49;;;;;;;20.48;14.60;;;;;;;-0.13;90.24;97211.42;1710129;83;21013;-64
2022/01/17 05:37:16;;;;;;;19.37;13.58;;;;;;;-0.13;90.16;97201.69;1694736;82;20942;-64
2022/01/17 05:39:43;;;;;;;17.70;13.18;;;;;;;-0.10;90.12;97203.85;1698471;82;21537;-67
2022/01/17 05:42:14;;;;;;;20.35;13.95;;;;;;;-0.08;90.06;97189.92;1703292;83;21582;-67
2022/01/17 05:44:38;;;;;;;21.65;14.33;;;;;;;-0.07;90.04;97183.60;1708004;82;20914;-62
2022/01/17 05:47:06;;;;;;;19.23;13.40;;;;;;;-0.07;89.98;97198.08;1706692;82;21462;-62
2022/01/17 05:49:33;;;;;;;19.35;12.88;;;;;;;-0.06;89.96;97207.59;1697780;82;21014;-69
2022/01/17 05:51:59;;;;;;;18.55;13.40;;;;;;;-0.04;89.97;97175.23;1692156;83;21541;-68
2022/01/17 05:54:28;;;;;;;20.48;13.90;;;;;;;-0.02;89.88;97192.89;1695438;83;20850;-69
2022/01/17 05:56:54;;;;;;;20.08;13.03;;;;;;;-0.01;89.87;97193.19;1707586;82;20919;-68
2022/01/17 05:59:21;;;;;;;19.07;13.08;;;;;;;0.03;89.86;97171.61;1701471;82;20970;-67
2022/01/17 06:01:48;;;;;;;19.55;13.08;;;;;;;0.04;89.80;97181.12;1713207;82;20968;-67
2022/01/17 06:04:15;;;;;;;18.37;13.50;;;;;;;0.04;89.79;97181.92;1702148;82;20987;-62
2022/01/17 06:06:42;;;;;;;17.12;12.15;;;;;;;0.05;89.67;97147.95;1690840;82;21121;-70
2022/01/17 06:09:09;;;;;;;17.85;12.53;;;;;;;0.08;89.70;97158.52;1704663;82;21468;-61
2022/01/17 06:11:36;;;;;;;16.10;12.63;;;;;;;0.08;89.67;97140.09;1687612;83;20951;-64
2022/01/17 06:14:04;;;;;;;19.60;12.68;;;;;;;0.09;89.69;97135.11;1687411;84;20967;-68
2022/01/17 06:16:31;;;;;;;15.98;12.35;;;;;;;0.11;89.65;97134.34;1708859;82;20925;-59
2022/01/17 06:19:00;;;;;;;18.70;12.15;;;;;;;0.13;89.59;97121.72;1710789;82;21382;-61
2022/01/17 06:21:26;;;;;;;21.73;13.03;;;;;;;0.15;89.57;97132.80;1722137;82;20969;-64
2022/01/17 06:23:53;;;;;;;19.07;13.18;;;;;;;0.15;89.54;97115.17;1703411;82;20998;-62
2022/01/17 06:26:20;;;;;;;17.95;11.75;;;;;;;0.16;89.53;97108.08;1720974;82;20988;-66
2022/01/17 06:28:47;;;;;;;19.00;12.00;;;;;;;0.14;89.60;97093.84;1712442;83;21438;-67
2022/01/17 06:31:14;;;;;;;15.85;12.13;;;;;;;0.16;89.60;97102.81;1695501;83;21129;-61
2022/01/17 06:33:41;;;;;;;16.57;12.23;;;;;;;0.16;89.60;97097.55;1694148;82;21518;-67
2022/01/17 06:36:07;;;;;;;18.52;11.60;;;;;;;0.18;89.62;97098.89;1688918;83;21011;-70
2022/01/17 06:38:34;;;;;;;16.93;11.88;;;;;;;0.19;89.57;97095.20;1698700;83;20992;-68
2022/01/17 06:41:01;;;;;;;16.97;12.47;;;;;;;0.22;89.54;97086.02;1745875;80;20986;-59
2022/01/17 06:43:28;;;;;;;17.98;12.78;;;;;;;0.24;89.55;97085.24;1724423;82;21135;-66
2022/01/17 06:45:55;;;;;;;18.92;12.95;;;;;;;0.27;89.48;97072.91;1721397;82;20974;-69
2022/01/17 06:48:22;;;;;;;15.50;11.78;;;;;;;0.26;89.54;97059.48;1702806;81;20916;-68
2022/01/17 06:50:48;;;;;;;15.70;11.65;;;;;;;0.25;89.55;97044.70;1753166;81;21372;-60
2022/01/17 06:53:15;;;;;;;16.80;11.85;;;;;;;0.26;89.70;97026.56;1716891;82;20887;-64
2022/01/17 06:55:41;;;;;;;14.95;11.65;;;;;;;0.28;90.03;97027.91;1719018;82;21913;-61
2022/01/17 06:58:08;;;;;;;16.93;12.15;;;;;;;0.29;90.02;97022.89;1721755;82;20942;-62
2022/01/17 07:00:35;;;;;;;14.87;10.88;;;;;;;0.31;90.18;97002.88;1719054;82;20997;-60
2022/01/17 07:03:01;;;;;;;16.02;11.55;;;;;;;0.32;90.42;96993.94;1721574;81;20999;-60
2022/01/17 07:05:28;;;;;;;19.25;12.73;;;;;;;0.31;90.37;96991.02;1715348;81;20911;-61
2022/01/17 07:07:56;;;;;;;15.95;11.68;;;;;;;0.33;90.59;97006.08;1702309;83;21082;-61
2022/01/17 07:10:25;;;;;;;13.38;10.28;;;;;;;0.34;90.61;97007.14;1716391;80;20930;-62
2022/01/17 07:12:53;;;;;;;14.65;10.40;;;;;;;0.35;90.71;97013.21;1746877;81;21545;-69
2022/01/17 07:15:20;;;;;;;15.68;10.98;;;;;;;0.34;90.89;97049.80;1740720;80;20991;-66
2022/01/17 07:17:46;;;;;;;15.00;11.88;;;;;;;0.35;90.84;97054.84;1748437;81;20857;-60
2022/01/17 07:20:13;;;;;;;14.55;10.60;;;;;;;0.36;90.97;97078.81;1703260;83;21080;-62
2022/01/17 07:22:40;;;;;;;16.70;11.45;;;;;;;0.39;90.98;97081.47;1683724;83;20992;-67
2022/01/17 07:25:07;;;;;;;16.50;11.28;;;;;;;0.42;91.05;97080.98;1718572;83;20919;-72
2022/01/17 07:27:35;;;;;;;16.70;12.03;;;;;;;0.48;91.00;97070.76;1713546;81;21686;-69
2022/01/17 07:30:05;;;;;;;15.88;11.45;;;;;;;0.51;90.90;97033.39;1688610;83;21094;-61
2022/01/17 07:32:34;;;;;;;15.45;11.03;;;;;;;0.53;90.86;97027.34;1729644;81;21139;-68
2022/01/17 07:35:00;;;;;;;16.25;11.88;;;;;;;0.54;90.86;96998.64;1717578;81;20937;-63
2022/01/17 07:37:27;;;;;;;17.45;11.53;;;;;;;0.56;90.89;96993.39;1699034;83;21078;-70
2022/01/17 07:39:54;;;;;;;13.78;10.58;;;;;;;0.58;90.97;96995.77;1679380;83;21143;-67
2022/01/17 07:42:20;;;;;;;19.52;13.93;;;;;;;0.61;90.97;96971.56;1714954;81;21070;-68
2022/01/17 07:44:53;;;;;;;14.93;11.03;;;;;;;0.63;90.93;96958.92;1689497;83;21736;-72
2022/01/17 07:47:18;;;;;;;14.15;10.53;;;;;;;0.65;90.93;96932.59;1711403;81;20993;-71
2022/01/17 07:49:45;;;;;;;12.00;10.05;;;;;;;0.71;90.81;96947.89;1691341;83;20918;-63
2022/01/17 07:52:12;;;;;;;12.68;8.73;;;;;;;0.74;90.80;96925.00;1697387;83;21001;-64
2022/01/17 07:54:43;;;;;;;13.43;9.15;;;;;;;0.82;90.48;96921.90;1726226;82;21430;-68
2022/01/17 07:57:07;;;;;;;12.60;9.93;;;;;;;0.85;90.34;96896.88;1742932;80;21108;-62
2022/01/17 07:59:34;;;;;;;12.53;9.65;;;;;;;0.85;90.18;96895.01;1741499;80;21536;-58
2022/01/17 08:02:01;;;;;;;13.05;8.73;;;;;;;0.84;90.18;96891.32;1693272;82;21115;-65
2022/01/17 08:04:29;;;;;;;10.38;8.53;;;;;;;0.85;90.05;96885.01;1702743;82;21489;-68
2022/01/17 08:06:56;;;;;;;10.98;9.15;;;;;;;0.88;89.95;96882.64;1697532;83;21502;-69
2022/01/17 08:09:31;;;;;;;11.38;9.18;;;;;;;0.93;89.84;96892.42;1702564;83;21121;-62
2022/01/17 08:11:58;;;;;;;12.35;8.65;;;;;;;0.96;89.73;96884.01;1698716;83;21043;-69
2022/01/17 08:14:27;;;;;;;9.28;7.83;;;;;;;0.99;89.64;96908.02;1699457;83;20914;-65
2022/01/17 08:16:54;;;;;;;10.00;8.43;;;;;;;1.01;89.32;96886.16;1715229;83;21441;-69
2022/01/17 08:19:25;;;;;;;11.35;8.58;;;;;;;1.04;89.21;96877.72;1701769;83;20995;-68
2022/01/17 08:21:52;;;;;;;11.00;8.30;;;;;;;1.06;88.85;96860.34;1707512;82;22055;-69
2022/01/17 08:24:20;;;;;;;10.68;7.42;;;;;;;1.07;88.71;96846.88;1693590;83;21018;-59
2022/01/17 08:26:47;;;;;;;10.58;7.95;;;;;;;1.09;88.32;96865.88;1690708;83;21063;-60
2022/01/17 08:29:14;;;;;;;12.55;10.28;;;;;;;1.11;88.26;96863.77;1704074;82;21511;-60
2022/01/17 08:31:46;;;;;;;12.93;9.38;;;;;;;1.14;87.98;96809.20;1692799;84;20964;-60
2022/01/17 08:34:10;;;;;;;11.88;8.50;;;;;;;1.16;87.96;96798.38;1704207;83;21138;-67
2022/01/17 08:36:37;;;;;;;11.15;7.80;;;;;;;1.17;87.51;96794.19;1708928;83;20976;-67
2022/01/17 08:39:04;;;;;;;8.23;7.08;;;;;;;1.21;87.22;96806.31;1695477;83;20975;-62
2022/01/17 08:41:31;;;;;;;9.73;7.37;;;;;;;1.23;86.88;96772.55;1705499;83;21047;-66
2022/01/17 08:43:58;;;;;;;9.53;7.85;;;;;;;1.23;86.81;96785.22;1695829;83;21467;-68
2022/01/17 08:46:26;;;;;;;10.15;7.20;;;;;;;1.23;86.42;96782.58;1696544;83;21191;-68
2022/01/17 08:48:53;;;;;;;11.12;7.53;;;;;;;1.25;86.45;96773.88;1708914;83;21049;-69
2022/01/17 08:51:20;;;;;;;7.70;6.42;;;;;;;1.27;86.32;96802.11;1707975;83;21517;-61
2022/01/17 08:53:46;;;;;;;10.32;7.95;;;;;;;1.28;86.52;96778.64;1709753;83;20952;-62
2022/01/17 08:56:13;;;;;;;11.78;8.18;;;;;;;1.27;86.90;96781.00;1704085;83;21062;-66
2022/01/17 08:58:41;;;;;;;8.70;6.53;;;;;;;1.26;87.26;96767.56;1712069;83;21087;-65
2022/01/17 09:01:08;;;;;;;8.65;6.95;;;;;;;1.26;87.97;96755.70;1698806;83;20896;-62
2022/01/17 09:03:36;;;;;;;9.50;7.50;;;;;;;1.23;88.69;96754.89;1701004;82;21723;-61
2022/01/17 09:06:03;;;;;;;9.75;6.78;;;;;;;1.16;89.28;96739.83;1697526;83;20979;-66
2022/01/17 09:08:30;;;;;;;10.38;7.40;;;;;;;1.13;90.70;96744.85;1716923;83;21491;-71
2022/01/17 09:10:57;;;;;;;13.40;7.28;;;;;;;1.10;91.44;96730.86;1703168;82;21125;-69
2022/01/17 09:13:25;;;;;;;11.28;7.40;;;;;;;1.06;91.70;96727.94;1695747;83;21522;-62
2022/01/17 09:15:52;;;;;;;8.45;7.12;;;;;;;1.05;91.44;96709.23;1704431;84;21048;-62
2022/01/17 09:18:20;;;;;;;8.48;7.12;;;;;;;1.03;91.58;96697.35;1700808;83;20952;-62
2022/01/17 09:20:49;;;;;;;10.32;6.87;;;;;;;1.01;91.79;96701.58;1702538;83;20911;-71
2022/01/17 09:23:15;;;;;;;10.15;7.00;;;;;;;0.99;91.90;96685.75;1703545;82;21095;-68
2022/01/17 09:25:42;;;;;;;8.25;6.58;;;;;;;0.98;92.07;96700.77;1708328;83;20951;-62
2022/01/17 09:28:09;;;;;;;7.35;5.97;;;;;;;0.97;92.11;96692.58;1706957;83;21415;-62
2022/01/17 09:30:36;;;;;;;8.93;6.47;;;;;;;0.95;91.91;96669.64;1712393;83;21322;-70
2022/01/17 09:33:03;;;;;;;8.83;6.75;;;;;;;0.92;91.94;96683.34;1683287;84;21108;-72
2022/01/17 09:35:31;;;;;;;9.05;6.75;;;;;;;0.89;92.16;96668.06;1696543;83;21201;-66
2022/01/17 09:37:59;;;;;;;11.08;7.40;;;;;;;0.88;92.27;96677.53;1693459;84;20956;-64
2022/01/17 09:40:26;;;;;;;7.97;5.83;;;;;;;0.89;92.29;96664.11;1693357;84;21111;-69
2022/01/17 09:42:56;;;;;;;9.80;6.92;;;;;;;0.90;92.62;96637.99;1688748;83;21095;-63
2022/01/17 09:45:25;;;;;;;9.80;7.45;;;;;;;0.93;92.85;96654.62;1726719;81;21175;-63
2022/01/17 09:47:51;;;;;;;10.30;6.80;;;;;;;0.94;92.82;96722.13;1687560;84;21105;-70
2022/01/17 09:50:22;;;;;;;8.45;6.92;;;;;;;0.97;93.16;96649.08;1693729;83;21044;-69
2022/01/17 09:52:51;;;;;;;9.13;6.47;;;;;;;0.98;93.21;96653.31;1685018;84;20994;-66
2022/01/17 09:55:24;;;;;;;9.73;7.20;;;;;;;0.97;93.26;96642.48;1694457;83;21079;-66
2022/01/17 09:58:06;;;;;;;9.93;6.83;;;;;;;0.94;93.34;96641.72;1698209;83;21068;-71
2022/01/17 10:00:43;;;;;;;9.93;7.33;;;;;;;0.93;93.36;96645.39;1738385;82;21119;-68
2022/01/17 10:03:13;;;;;;;11.83;7.78;;;;;;;0.91;93.30;96626.92;1732178;81;21060;-70
2022/01/17 10:05:40;;;;;;;9.53;7.37;;;;;;;0.91;93.19;96622.45;1726972;81;20967;-61
2022/01/17 10:08:16;;;;;;;8.50;6.72;;;;;;;0.93;93.12;96609.00;1736053;81;21534;-69
2022/01/17 10:11:05;;;;;;;9.60;7.28;;;;;;;0.93;93.22;96616.91;1738387;81;21609;-60
2022/01/17 10:13:33;;;;;;;11.12;7.85;;;;;;;0.96;93.09;96582.12;1732192;80;22563;-62
2022/01/17 10:16:10;;;;;;;9.33;7.72;;;;;;;0.97;92.91;96602.94;1743455;81;21029;-62
2022/01/17 10:19:00;;;;;;;8.75;6.55;;;;;;;0.98;92.85;96587.40;1689355;83;21077;-72
2022/01/17 10:21:33;;;;;;;8.95;7.17;;;;;;;1.00;92.52;96585.80;1676079;84;21460;-70
2022/01/17 10:35:13;;;;;;;8.68;6.95;;;;;;;1.04;91.60;96535.44;1715042;82;21071;-67
2022/01/17 10:37:41;;;;;;;10.65;7.40;;;;;;;1.07;91.47;96531.75;1719575;81;21593;-59
2022/01/17 10:40:14;;;;;;;8.53;7.10;;;;;;;1.08;91.32;96525.44;1720187;83;21137;-70
2022/01/17 10:42:47;;;;;;;7.58;6.45;;;;;;;1.10;91.23;96500.91;1720430;82;21101;-61
2022/01/17 10:45:21;;;;;;;9.10;6.90;;;;;;;1.14;91.20;96513.81;1677006;84;32525;-71
2022/01/17 10:47:51;;;;;;;9.15;6.35;;;;;;;1.18;91.17;96508.27;1693212;83;21126;-62
2022/01/17 10:50:31;;;;;;;7.95;6.12;;;;;;;1.22;90.83;96515.92;1690681;83;21192;-63
2022/01/17 10:53:02;;;;;;;13.93;6.30;;;;;;;1.23;90.37;96489.80;1686669;82;21343;-71
2022/01/17 10:55:41;;;;;;;7.50;5.60;;;;;;;1.24;90.00;96500.63;1671703;84;21161;-61
2022/01/17 10:58:12;;;;;;;7.87;6.25;;;;;;;1.25;89.89;96457.34;1690486;81;20960;-67
2022/01/17 11:00:46;;;;;;;9.90;6.10;;;;;;;1.24;90.18;96457.10;1737992;81;21066;-70
2022/01/17 11:03:16;;;;;;;5.80;5.15;;;;;;;1.21;90.67;96457.63;1731324;81;21518;-63
2022/01/17 11:05:46;;;;;;;7.12;5.40;;;;;;;1.19;90.68;96448.41;1720752;82;21723;-58
2022/01/17 11:08:13;;;;;;;9.20;5.95;;;;;;;1.19;91.00;96452.36;1732286;81;20942;-70
2022/01/17 11:10:43;;;;;;;9.80;5.80;;;;;;;1.18;91.34;96454.20;1741896;80;20983;-61
2022/01/17 11:13:13;;;;;;;6.62;5.22;;;;;;;1.16;91.61;96424.67;1747159;81;20971;-68
2022/01/17 11:15:44;;;;;;;7.78;5.58;;;;;;;1.11;92.03;96420.72;1742841;80;21585;-68
2022/01/17 11:18:18;;;;;;;12.98;5.60;;;;;;;1.07;92.33;96403.07;1733918;80;21105;-66
2022/01/17 11:20:48;;;;;;;7.58;5.30;;;;;;;1.03;93.15;96417.33;1740326;81;20916;-68
2022/01/17 11:23:15;;;;;;;6.65;5.15;;;;;;;1.00;93.42;96395.97;1716046;80;21147;-57
2022/01/17 11:25:44;;;;;;;7.15;5.17;;;;;;;0.97;93.85;96406.52;1716755;83;20972;-66
2022/01/17 11:28:14;;;;;;;7.17;4.95;;;;;;;0.96;94.03;96384.39;1724557;82;21020;-72
2022/01/17 11:30:41;;;;;;;5.92;4.53;;;;;;;0.93;94.51;96388.34;1678925;84;21055;-67
2022/01/17 11:33:09;;;;;;;7.17;5.28;;;;;;;0.90;95.38;96378.84;1714381;82;21529;-73
2022/01/17 11:35:41;;;;;;;6.42;5.53;;;;;;;0.85;96.22;96359.88;1712229;82;21549;-64
2022/01/17 11:38:14;;;;;;;6.80;5.72;;;;;;;0.80;96.78;96383.61;1718623;83;21073;-70
2022/01/17 11:40:42;;;;;;;7.97;4.83;;;;;;;0.78;97.07;96352.78;1673866;82;21053;-67
2022/01/17 11:43:27;;;;;;;6.67;4.62;;;;;;;0.80;97.13;96349.90;1698494;84;21116;-65
2022/01/17 11:45:54;;;;;;;6.50;4.92;;;;;;;0.81;97.21;96361.48;1691518;83;21708;-68
2022/01/17 11:48:25;;;;;;;5.47;4.78;;;;;;;0.82;97.10;96372.30;1681623;84;21076;-56
2022/01/17 11:53:37;;;;;;;5.33;4.42;;;;;;;0.77;97.33;96357.81;1697961;83;21491;-69
2022/01/17 11:56:04;;;;;;;6.70;5.28;;;;;;;0.74;97.72;96339.09;1693144;83;21779;-75